Main page
METAR-TAF:

METAR-TAF

Airports :

Cologne Bonn Airport

Cologne, Germany

latitude: 50-52N, longitude: 007-10E, elevation: 91 m

Current weather observation

The report was made 51 minutes ago, at 00:20 UTC
Wind 4 kt from the East, varying between East/Northeast and Southeast
Temperature 18°C
Humidity 77%
Pressure 1017 hPa
Visibility 10 km or more
no clouds below 1500 m and no cumulonimbus

METAR: EDDK 250020Z AUTO 09004KT 070V130 CAVOK 18/14 Q1017 NOSIG

Time: 03:11 (01:11 UTC)

Forecast

The report was made 2 hours and 11 minutes ago, at 23:00 UTC
Forecast valid from 25 at 00 UTC to 26 at 06 UTC
Wind 3 kt from the East/Southeast
Visibility 10 km or more
no clouds below 1500 m and no cumulonimbus
Becoming
from 25 at 09 UTC to 25 at 11 UTC
Wind 6 kt from the East/Northeast
Becoming
from 25 at 22 UTC to 25 at 24 UTC
Wind 3 kt from the East/Southeast

TAF: EDDK 242300Z 2500/2606 12003KT CAVOK BECMG 2509/2511 06006KT BECMG 2522/2524 12003KT

Weather observations and forecasts of more than 4000 airports (METAR and TAF reports).

The available stations are represented by yellow and red dots on the map.

Hover mouse over dot to see the name of the station.

Then click to see weather observations and forecasts.

To change the map : click on the green buttons with a black cross to zoom in, on the green button with a dash to zoom out, or on the green arrows for adjacent maps.


METAR-TAF: